createdAt,value
2019-01-06T00:00:15.057Z,1015.56
2019-01-06T00:01:15.042Z,1015.58
2019-01-06T00:02:15.027Z,1015.52
2019-01-06T00:03:15.012Z,1015.49
2019-01-06T00:04:14.997Z,1015.51
2019-01-06T00:05:14.988Z,1015.54
2019-01-06T00:06:14.967Z,1015.51
2019-01-06T00:07:14.952Z,1015.55
2019-01-06T00:08:14.937Z,1015.54
2019-01-06T00:09:14.923Z,1015.62
2019-01-06T00:10:14.908Z,1015.55
2019-01-06T00:11:14.893Z,1015.53
2019-01-06T00:12:14.886Z,1015.52
2019-01-06T00:13:14.866Z,1015.54
2019-01-06T00:14:14.870Z,1015.54
2019-01-06T00:15:14.833Z,1015.48
2019-01-06T00:16:14.817Z,1015.47
2019-01-06T00:17:14.802Z,1015.45
2019-01-06T00:18:14.789Z,1015.44
2019-01-06T00:19:14.779Z,1015.48
2019-01-06T00:20:14.784Z,1015.44
2019-01-06T00:21:14.741Z,1015.42
2019-01-06T00:22:14.727Z,1015.37
2019-01-06T00:23:14.963Z,1015.46
2019-01-06T00:24:14.697Z,1015.48
2019-01-06T00:25:14.682Z,1015.41
2019-01-06T00:26:14.667Z,1015.53
2019-01-06T00:27:14.652Z,1015.52
2019-01-06T00:28:14.637Z,1015.53
2019-01-06T00:29:14.622Z,1015.56
2019-01-06T00:30:14.608Z,1015.56
2019-01-06T00:31:14.592Z,1015.59
2019-01-06T00:32:14.576Z,1015.63
2019-01-06T00:33:14.618Z,1015.65
2019-01-06T00:34:14.552Z,1015.61
2019-01-06T00:35:14.533Z,1015.64
2019-01-06T00:36:14.518Z,1015.64
2019-01-06T00:37:14.503Z,1015.64
2019-01-06T00:38:14.488Z,1015.62
2019-01-06T00:39:14.485Z,1015.64
2019-01-06T00:40:14.460Z,1015.65
2019-01-06T00:41:14.446Z,1015.69
2019-01-06T00:42:14.430Z,1015.75
2019-01-06T00:43:14.414Z,1015.72
2019-01-06T00:44:14.399Z,1015.71
2019-01-06T00:45:14.385Z,1015.72
2019-01-06T00:46:14.370Z,1015.73
2019-01-06T00:47:14.358Z,1015.73
2019-01-06T00:48:14.340Z,1015.74
2019-01-06T00:49:14.325Z,1015.74
2019-01-06T00:50:14.311Z,1015.78
2019-01-06T00:51:14.297Z,1015.76
2019-01-06T00:52:14.280Z,1015.76
2019-01-06T00:53:14.517Z,1015.74
2019-01-06T00:54:14.254Z,1015.74
2019-01-06T00:55:14.259Z,1015.84
2019-01-06T00:56:14.221Z,1015.78
2019-01-06T00:57:14.207Z,1015.78
2019-01-06T00:58:14.193Z,1015.80
2019-01-06T00:59:14.178Z,1015.85
2019-01-06T01:00:14.165Z,1015.85
2019-01-06T01:01:14.173Z,1015.85
2019-01-06T01:02:14.133Z,1015.89
2019-01-06T01:03:14.119Z,1015.90
2019-01-06T01:04:14.103Z,1015.92
2019-01-06T01:05:14.094Z,1015.89
2019-01-06T01:06:14.074Z,1015.92
2019-01-06T01:07:14.060Z,1015.91
2019-01-06T01:08:14.050Z,1015.94
2019-01-06T01:09:14.032Z,1016.00
2019-01-06T01:10:14.017Z,1015.99
2019-01-06T01:11:14.002Z,1016.03
2019-01-06T01:12:13.986Z,1016.03
2019-01-06T01:13:13.984Z,1016.02
2019-01-06T01:14:14.208Z,1015.98
2019-01-06T01:15:13.943Z,1016.04
2019-01-06T01:16:13.927Z,1016.03
2019-01-06T01:17:13.913Z,1016.01
2019-01-06T01:18:13.899Z,1016.05
2019-01-06T01:19:13.884Z,1016.08
2019-01-06T01:20:13.875Z,1016.08
2019-01-06T01:21:13.855Z,1016.14
2019-01-06T01:22:13.840Z,1016.12
2019-01-06T01:23:13.826Z,1016.10
2019-01-06T01:24:13.816Z,1016.12
2019-01-06T01:25:13.796Z,1016.11
2019-01-06T01:26:13.781Z,1016.13
2019-01-06T01:27:13.767Z,1016.09
2019-01-06T01:28:13.751Z,1016.17
2019-01-06T01:29:13.737Z,1016.18
2019-01-06T01:30:13.723Z,1016.22
2019-01-06T01:31:13.708Z,1016.20
2019-01-06T01:32:13.693Z,1016.21
2019-01-06T01:33:13.681Z,1016.22
2019-01-06T01:34:13.668Z,1016.27
2019-01-06T01:35:13.649Z,1016.27
2019-01-06T01:36:13.647Z,1016.28
2019-01-06T01:37:13.670Z,1016.30
2019-01-06T01:38:13.605Z,1016.27
2019-01-06T01:39:13.592Z,1016.25
2019-01-06T01:40:13.581Z,1016.24
2019-01-06T01:41:13.562Z,1016.25
2019-01-06T01:42:13.561Z,1016.22
2019-01-06T01:43:13.533Z,1016.25
2019-01-06T01:44:13.518Z,1016.26
2019-01-06T01:45:13.503Z,1016.27
2019-01-06T01:46:13.488Z,1016.27
2019-01-06T01:47:13.476Z,1016.29
2019-01-06T01:48:13.459Z,1016.29
2019-01-06T01:49:13.445Z,1016.32
2019-01-06T01:50:13.430Z,1016.43
2019-01-06T01:51:13.417Z,1016.40
2019-01-06T01:52:13.400Z,1016.42
2019-01-06T01:53:13.396Z,1016.45
2019-01-06T01:54:13.377Z,1016.37
2019-01-06T01:55:13.357Z,1016.51
2019-01-06T01:56:13.342Z,1016.50
2019-01-06T01:57:13.327Z,1016.49
2019-01-06T01:58:13.314Z,1016.46
2019-01-06T01:59:13.298Z,1016.45
2019-01-06T02:00:13.291Z,1016.39
2019-01-06T02:01:13.268Z,1016.34
2019-01-06T02:02:13.253Z,1016.39
2019-01-06T02:03:13.238Z,1016.37
2019-01-06T02:04:13.223Z,1016.37
2019-01-06T02:05:13.208Z,1016.38
2019-01-06T02:06:13.193Z,1016.39
2019-01-06T02:07:13.181Z,1016.37
2019-01-06T02:08:13.163Z,1016.43
2019-01-06T02:09:13.148Z,1016.46
2019-01-06T02:10:13.138Z,1016.46
2019-01-06T02:11:13.119Z,1016.49
2019-01-06T02:12:13.103Z,1016.53
2019-01-06T02:13:13.096Z,1016.46
2019-01-06T02:14:13.095Z,1016.52
2019-01-06T02:15:13.059Z,1016.47
2019-01-06T02:16:13.048Z,1016.44
2019-01-06T02:17:13.028Z,1016.42
2019-01-06T02:18:13.014Z,1016.37
2019-01-06T02:19:12.999Z,1016.37
2019-01-06T02:20:12.983Z,1016.35
2019-01-06T02:21:12.971Z,1016.43
2019-01-06T02:22:12.990Z,1016.42
2019-01-06T02:23:12.939Z,1016.42
2019-01-06T02:24:12.926Z,1016.49
2019-01-06T02:25:12.911Z,1016.53
2019-01-06T02:26:12.893Z,1016.45
2019-01-06T02:27:12.879Z,1016.47
2019-01-06T02:28:12.863Z,1016.43
2019-01-06T02:29:12.848Z,1016.49
2019-01-06T02:30:13.088Z,1016.49
2019-01-06T02:31:12.829Z,1016.50
2019-01-06T02:32:12.805Z,1016.52
2019-01-06T02:33:12.788Z,1016.50
2019-01-06T02:34:12.781Z,1016.52
2019-01-06T02:35:12.762Z,1016.50
2019-01-06T02:36:12.743Z,1016.54
2019-01-06T02:37:12.727Z,1016.51
2019-01-06T02:38:12.714Z,1016.47
2019-01-06T02:39:12.699Z,1016.46
2019-01-06T02:40:12.682Z,1016.45
2019-01-06T02:41:12.673Z,1016.45
2019-01-06T02:42:12.654Z,1016.41
2019-01-06T02:43:12.638Z,1016.36
2019-01-06T02:44:12.621Z,1016.41
2019-01-06T02:45:12.609Z,1016.41
2019-01-06T02:46:12.592Z,1016.39
2019-01-06T02:47:12.577Z,1016.39
2019-01-06T02:48:12.563Z,1016.34
2019-01-06T02:49:12.546Z,1016.39
2019-01-06T02:50:12.531Z,1016.36
2019-01-06T02:51:12.518Z,1016.31
2019-01-06T02:52:12.501Z,1016.35
2019-01-06T02:53:12.486Z,1016.31
2019-01-06T02:54:12.472Z,1016.29
2019-01-06T02:55:12.476Z,1016.34
2019-01-06T02:56:12.441Z,1016.29
2019-01-06T02:57:12.425Z,1016.31
2019-01-06T02:58:12.712Z,1016.31
2019-01-06T02:59:12.395Z,1016.27
2019-01-06T03:00:12.381Z,1016.28
2019-01-06T03:01:12.364Z,1016.33
2019-01-06T03:02:12.356Z,1016.32
2019-01-06T03:03:12.585Z,1016.32
2019-01-06T03:04:12.326Z,1016.27
2019-01-06T03:05:12.307Z,1016.33
2019-01-06T03:06:12.290Z,1016.27
2019-01-06T03:07:12.274Z,1016.30
2019-01-06T03:08:12.301Z,1016.28
2019-01-06T03:09:12.244Z,1016.27
2019-01-06T03:10:12.228Z,1016.29
2019-01-06T03:11:12.214Z,1016.24
2019-01-06T03:12:12.209Z,1016.27
2019-01-06T03:13:12.182Z,1016.26
2019-01-06T03:14:12.167Z,1016.23
2019-01-06T03:15:12.155Z,1016.24
2019-01-06T03:16:12.140Z,1016.25
2019-01-06T03:17:12.122Z,1016.25
2019-01-06T03:18:12.108Z,1016.23
2019-01-06T03:19:12.103Z,1016.22
2019-01-06T03:20:12.079Z,1016.22
2019-01-06T03:21:12.062Z,1016.24
2019-01-06T03:22:12.047Z,1016.22
2019-01-06T03:23:12.035Z,1016.20
2019-01-06T03:24:12.019Z,1016.20
2019-01-06T03:25:12.006Z,1016.18
2019-01-06T03:26:11.987Z,1016.21
2019-01-06T03:27:11.972Z,1016.19
2019-01-06T03:28:11.957Z,1016.20
2019-01-06T03:29:11.949Z,1016.18
2019-01-06T03:30:11.927Z,1016.18
2019-01-06T03:31:11.925Z,1016.17
2019-01-06T03:32:11.896Z,1016.18
2019-01-06T03:33:11.881Z,1016.14
2019-01-06T03:34:12.115Z,1016.14
2019-01-06T03:35:11.850Z,1016.12
2019-01-06T03:36:11.834Z,1016.10
2019-01-06T03:37:11.828Z,1016.08
2019-01-06T03:38:11.817Z,1016.08
2019-01-06T03:39:11.797Z,1016.08
2019-01-06T03:40:11.774Z,1016.03
2019-01-06T03:41:11.757Z,1016.00
2019-01-06T03:42:11.742Z,1016.00
2019-01-06T03:43:11.726Z,1015.99
2019-01-06T03:44:11.714Z,1015.99
2019-01-06T03:45:11.709Z,1015.96
2019-01-06T03:46:11.685Z,1016.02
2019-01-06T03:47:11.666Z,1015.93
2019-01-06T03:48:11.648Z,1015.91
2019-01-06T03:49:11.633Z,1015.91
2019-01-06T03:50:11.618Z,1015.95
2019-01-06T03:51:11.604Z,1015.95
2019-01-06T03:52:11.587Z,1015.90
2019-01-06T03:53:11.572Z,1015.90
2019-01-06T03:54:11.557Z,1015.90
2019-01-06T03:55:11.542Z,1015.93
2019-01-06T03:56:11.527Z,1015.88
2019-01-06T03:57:11.511Z,1015.86
2019-01-06T03:58:11.500Z,1015.91
2019-01-06T03:59:11.484Z,1015.93
2019-01-06T04:00:11.466Z,1015.91
2019-01-06T04:01:11.450Z,1015.89
2019-01-06T04:02:11.437Z,1015.89
2019-01-06T04:03:11.421Z,1015.92
2019-01-06T04:04:11.406Z,1015.88
2019-01-06T04:05:11.647Z,1015.89
2019-01-06T04:06:11.374Z,1015.90
2019-01-06T04:07:11.360Z,1015.86
2019-01-06T04:08:11.344Z,1015.90
2019-01-06T04:09:11.331Z,1015.91
2019-01-06T04:10:12.821Z,1015.90
2019-01-06T04:11:15.361Z,1015.85
2019-01-06T04:12:11.286Z,1015.85
2019-01-06T04:13:11.274Z,1015.77
2019-01-06T04:14:11.257Z,1015.77
2019-01-06T04:15:11.244Z,1015.80
2019-01-06T04:16:11.224Z,1015.77
2019-01-06T04:17:11.210Z,1015.78
2019-01-06T04:18:11.197Z,1015.79
2019-01-06T04:19:11.185Z,1015.79
2019-01-06T04:20:11.188Z,1015.80
2019-01-06T04:21:11.148Z,1015.80
2019-01-06T04:22:11.133Z,1015.81
2019-01-06T04:23:11.122Z,1015.79
2019-01-06T04:24:11.103Z,1015.78
2019-01-06T04:25:11.089Z,1015.82
2019-01-06T04:26:11.073Z,1015.79
2019-01-06T04:27:11.062Z,1015.79
2019-01-06T04:28:11.054Z,1015.79
2019-01-06T04:29:11.041Z,1015.74
2019-01-06T04:30:11.015Z,1015.76
2019-01-06T04:31:10.999Z,1015.79
2019-01-06T04:32:10.984Z,1015.78
2019-01-06T04:33:10.968Z,1015.73
2019-01-06T04:34:10.954Z,1015.72
2019-01-06T04:35:10.939Z,1015.74
2019-01-06T04:36:11.175Z,1015.72
2019-01-06T04:37:10.910Z,1015.72
2019-01-06T04:38:10.895Z,1015.70
2019-01-06T04:39:10.880Z,1015.69
2019-01-06T04:40:10.875Z,1015.73
2019-01-06T04:41:10.856Z,1015.70
2019-01-06T04:42:10.836Z,1015.70
2019-01-06T04:43:10.821Z,1015.65
2019-01-06T04:44:10.805Z,1015.68
2019-01-06T04:45:10.789Z,1015.70
2019-01-06T04:46:10.776Z,1015.62
2019-01-06T04:47:10.772Z,1015.59
2019-01-06T04:48:10.745Z,1015.61
2019-01-06T04:49:10.730Z,1015.61
2019-01-06T04:50:10.716Z,1015.62
2019-01-06T04:51:10.701Z,1015.59
2019-01-06T04:52:10.685Z,1015.56
2019-01-06T04:53:10.671Z,1015.54
2019-01-06T04:54:10.655Z,1015.54
2019-01-06T04:55:10.641Z,1015.53
2019-01-06T04:56:10.626Z,1015.47
2019-01-06T04:57:10.611Z,1015.46
2019-01-06T04:58:10.603Z,1015.48
2019-01-06T04:59:10.582Z,1015.53
2019-01-06T05:00:10.577Z,1015.53
2019-01-06T05:01:10.580Z,1015.52
2019-01-06T05:02:10.557Z,1015.55
2019-01-06T05:03:10.521Z,1015.56
2019-01-06T05:04:10.512Z,1015.57
2019-01-06T05:05:10.490Z,1015.55
2019-01-06T05:06:10.476Z,1015.51
2019-01-06T05:07:10.461Z,1015.49
2019-01-06T05:08:10.447Z,1015.45
2019-01-06T05:09:10.436Z,1015.47
2019-01-06T05:10:10.426Z,1015.47
2019-01-06T05:11:10.402Z,1015.52
2019-01-06T05:12:10.385Z,1015.48
2019-01-06T05:13:10.370Z,1015.49
2019-01-06T05:14:10.355Z,1015.48
2019-01-06T05:15:10.342Z,1015.52
2019-01-06T05:16:10.325Z,1015.42
2019-01-06T05:17:10.310Z,1015.46
2019-01-06T05:18:10.296Z,1015.56
2019-01-06T05:19:10.280Z,1015.52
2019-01-06T05:20:10.264Z,1015.56
2019-01-06T05:21:10.263Z,1015.55
2019-01-06T05:22:10.245Z,1015.58
2019-01-06T05:23:10.221Z,1015.60
2019-01-06T05:24:10.204Z,1015.50
2019-01-06T05:25:10.190Z,1015.55
2019-01-06T05:26:10.176Z,1015.56
2019-01-06T05:27:10.161Z,1015.57
2019-01-06T05:28:10.156Z,1015.53
2019-01-06T05:29:10.135Z,1015.61
2019-01-06T05:30:10.135Z,1015.62
2019-01-06T05:31:10.099Z,1015.58
2019-01-06T05:32:10.083Z,1015.61
2019-01-06T05:33:10.070Z,1015.58
2019-01-06T05:34:10.054Z,1015.62
2019-01-06T05:35:10.039Z,1015.64
2019-01-06T05:36:10.023Z,1015.61
2019-01-06T05:37:10.008Z,1015.60
2019-01-06T05:38:09.993Z,1015.61
2019-01-06T05:39:09.979Z,1015.63
2019-01-06T05:40:09.963Z,1015.63
2019-01-06T05:41:09.948Z,1015.64
2019-01-06T05:42:09.935Z,1015.60
2019-01-06T05:43:09.930Z,1015.66
2019-01-06T05:44:09.909Z,1015.66
2019-01-06T05:45:09.903Z,1015.64
2019-01-06T05:46:09.875Z,1015.62
2019-01-06T05:47:09.860Z,1015.68
2019-01-06T05:48:09.844Z,1015.64
2019-01-06T05:49:09.839Z,1015.67
2019-01-06T05:50:09.816Z,1015.70
2019-01-06T05:51:09.815Z,1015.66
2019-01-06T05:52:09.784Z,1015.68
2019-01-06T05:53:09.770Z,1015.71
2019-01-06T05:54:09.755Z,1015.71
2019-01-06T05:55:09.740Z,1015.72
2019-01-06T05:56:09.725Z,1015.74
2019-01-06T05:57:09.710Z,1015.73
2019-01-06T05:58:09.695Z,1015.73
2019-01-06T05:59:09.682Z,1015.75
2019-01-06T06:00:09.669Z,1015.75
2019-01-06T06:01:09.652Z,1015.71
2019-01-06T06:02:09.645Z,1015.74
2019-01-06T06:03:09.633Z,1015.78
2019-01-06T06:04:09.606Z,1015.78
2019-01-06T06:05:09.591Z,1015.78
2019-01-06T06:06:09.577Z,1015.82
2019-01-06T06:07:11.465Z,1015.82
2019-01-06T06:08:09.546Z,1015.86
2019-01-06T06:09:09.533Z,1015.88
2019-01-06T06:10:09.518Z,1015.85
2019-01-06T06:11:09.502Z,1015.88
2019-01-06T06:12:09.486Z,1015.89
2019-01-06T06:13:09.471Z,1015.88
2019-01-06T06:14:09.457Z,1015.88
2019-01-06T06:15:09.443Z,1015.88
2019-01-06T06:16:09.427Z,1015.87
2019-01-06T06:17:09.413Z,1015.87
2019-01-06T06:18:09.397Z,1015.87
2019-01-06T06:19:09.383Z,1015.85
2019-01-06T06:20:09.367Z,1015.88
2019-01-06T06:21:09.352Z,1015.84
2019-01-06T06:22:09.337Z,1015.89
2019-01-06T06:23:09.339Z,1015.86
2019-01-06T06:24:09.311Z,1015.84
2019-01-06T06:25:09.298Z,1015.87
2019-01-06T06:26:09.290Z,1015.86
2019-01-06T06:27:09.262Z,1015.87
2019-01-06T06:28:09.247Z,1015.86
2019-01-06T06:29:09.232Z,1015.85
2019-01-06T06:30:09.225Z,1015.86
2019-01-06T06:31:09.202Z,1015.86
2019-01-06T06:32:09.204Z,1015.83
2019-01-06T06:33:09.173Z,1015.84
2019-01-06T06:34:09.158Z,1015.87
2019-01-06T06:35:09.143Z,1015.87
2019-01-06T06:36:09.127Z,1015.87
2019-01-06T06:37:09.363Z,1015.90
2019-01-06T06:38:09.097Z,1015.92
2019-01-06T06:39:09.083Z,1015.93
2019-01-06T06:40:09.067Z,1015.94
2019-01-06T06:41:09.053Z,1015.96
2019-01-06T06:42:09.038Z,1015.96
2019-01-06T06:43:09.033Z,1015.98
2019-01-06T06:44:09.020Z,1016.00
2019-01-06T06:45:08.993Z,1016.04
2019-01-06T06:46:08.979Z,1015.98
2019-01-06T06:47:08.966Z,1016.02
2019-01-06T06:48:08.951Z,1016.02
2019-01-06T06:49:08.934Z,1016.02
2019-01-06T06:50:08.933Z,1016.03
2019-01-06T06:51:08.907Z,1016.04
2019-01-06T06:52:08.889Z,1016.04
2019-01-06T06:53:08.882Z,1016.04
2019-01-06T06:54:08.860Z,1016.06
2019-01-06T06:55:08.845Z,1016.11
2019-01-06T06:56:08.832Z,1016.05
2019-01-06T06:57:08.815Z,1016.08
2019-01-06T06:58:08.806Z,1016.10
2019-01-06T06:59:08.788Z,1016.09
2019-01-06T07:00:08.771Z,1016.07
2019-01-06T07:01:08.757Z,1016.12
2019-01-06T07:02:08.742Z,1016.06
2019-01-06T07:03:08.727Z,1016.12
2019-01-06T07:04:08.714Z,1016.10
2019-01-06T07:05:08.714Z,1016.14
2019-01-06T07:06:08.710Z,1016.16
2019-01-06T07:07:08.712Z,1016.14
2019-01-06T07:08:08.663Z,1016.14
2019-01-06T07:09:08.637Z,1016.14
2019-01-06T07:10:08.639Z,1016.18
2019-01-06T07:11:08.641Z,1016.17
2019-01-06T07:12:08.644Z,1016.19
2019-01-06T07:13:08.620Z,1016.20
2019-01-06T07:14:08.578Z,1016.21
2019-01-06T07:15:08.573Z,1016.23
2019-01-06T07:16:08.570Z,1016.29
2019-01-06T07:17:08.518Z,1016.28
2019-01-06T07:18:08.509Z,1016.27
2019-01-06T07:19:08.502Z,1016.28
2019-01-06T07:20:08.474Z,1016.34
2019-01-06T07:21:08.458Z,1016.35
2019-01-06T07:22:08.460Z,1016.34
2019-01-06T07:23:08.433Z,1016.37
2019-01-06T07:24:08.414Z,1016.36
2019-01-06T07:25:08.443Z,1016.34
2019-01-06T07:26:08.432Z,1016.35
2019-01-06T07:27:08.402Z,1016.38
2019-01-06T07:28:08.383Z,1016.39
2019-01-06T07:29:08.350Z,1016.41
2019-01-06T07:30:08.326Z,1016.42
2019-01-06T07:31:08.318Z,1016.43
2019-01-06T07:32:08.331Z,1016.46
2019-01-06T07:33:08.298Z,1016.45
2019-01-06T07:34:08.282Z,1016.49
2019-01-06T07:35:08.333Z,1016.49
2019-01-06T07:36:08.239Z,1016.53
2019-01-06T07:37:08.281Z,1016.49
2019-01-06T07:38:08.229Z,1016.50
2019-01-06T07:39:08.252Z,1016.50
2019-01-06T07:40:08.222Z,1016.56
2019-01-06T07:41:08.260Z,1016.57
2019-01-06T07:42:08.148Z,1016.58
2019-01-06T07:43:08.156Z,1016.62
2019-01-06T07:44:08.137Z,1016.59
2019-01-06T07:45:08.105Z,1016.60
2019-01-06T07:46:08.089Z,1016.64
2019-01-06T07:47:08.097Z,1016.63
2019-01-06T07:48:08.087Z,1016.65
2019-01-06T07:49:08.065Z,1016.64
2019-01-06T07:50:08.050Z,1016.67
2019-01-06T07:51:08.041Z,1016.68
2019-01-06T07:52:08.050Z,1016.71
2019-01-06T07:53:08.092Z,1016.71
2019-01-06T07:54:08.004Z,1016.71
2019-01-06T07:55:07.990Z,1016.72
2019-01-06T07:56:07.971Z,1016.73
2019-01-06T07:57:07.942Z,1016.73
2019-01-06T07:58:07.973Z,1016.75
2019-01-06T07:59:07.940Z,1016.75
2019-01-06T08:00:15.003Z,1016.75
2019-01-06T08:01:07.902Z,1016.80
2019-01-06T08:02:07.888Z,1016.78
2019-01-06T08:03:07.885Z,1016.79
2019-01-06T08:04:07.863Z,1016.75
2019-01-06T08:05:07.879Z,1016.78
2019-01-06T08:06:07.821Z,1016.77
2019-01-06T08:07:07.803Z,1016.77
2019-01-06T08:08:07.782Z,1016.76
2019-01-06T08:09:07.811Z,1016.77
2019-01-06T08:10:07.793Z,1016.79
2019-01-06T08:11:07.868Z,1016.81
2019-01-06T08:12:07.805Z,1016.80
2019-01-06T08:13:07.704Z,1016.78
2019-01-06T08:14:07.763Z,1016.77
2019-01-06T08:15:07.752Z,1016.78
2019-01-06T08:16:07.745Z,1016.84
2019-01-06T08:17:07.707Z,1016.85
2019-01-06T08:18:07.692Z,1016.82
2019-01-06T08:19:07.656Z,1016.82
2019-01-06T08:20:07.654Z,1016.79
2019-01-06T08:21:07.614Z,1016.86
2019-01-06T08:22:07.587Z,1016.81
2019-01-06T08:23:07.554Z,1016.82
2019-01-06T08:24:07.594Z,1016.82
2019-01-06T08:25:07.528Z,1016.82
2019-01-06T08:26:07.584Z,1016.82
2019-01-06T08:27:07.597Z,1016.81
2019-01-06T08:28:07.487Z,1016.81
2019-01-06T08:29:07.485Z,1016.80
2019-01-06T08:30:07.465Z,1016.79
2019-01-06T08:31:07.479Z,1016.84
2019-01-06T08:32:07.479Z,1016.83
2019-01-06T08:33:07.486Z,1016.84
2019-01-06T08:34:07.434Z,1016.83
2019-01-06T08:35:07.444Z,1016.80
2019-01-06T08:36:07.462Z,1016.82
2019-01-06T08:37:07.400Z,1016.86
2019-01-06T08:38:07.391Z,1016.81
2019-01-06T08:39:07.319Z,1016.82
2019-01-06T08:40:07.376Z,1016.83
2019-01-06T08:41:07.350Z,1016.87
2019-01-06T08:42:07.318Z,1016.84
2019-01-06T08:43:07.287Z,1016.85
2019-01-06T08:44:07.262Z,1016.85
2019-01-06T08:45:07.253Z,1016.89
2019-01-06T08:46:07.237Z,1016.85
2019-01-06T08:47:07.216Z,1016.87
2019-01-06T08:48:07.187Z,1016.87
2019-01-06T08:49:07.187Z,1016.88
2019-01-06T08:50:07.149Z,1016.89
2019-01-06T08:51:07.141Z,1016.89
2019-01-06T08:52:07.129Z,1016.88
2019-01-06T08:53:07.150Z,1016.89
2019-01-06T08:54:07.116Z,1016.91
2019-01-06T08:55:07.093Z,1016.89
2019-01-06T08:56:07.077Z,1016.90
2019-01-06T08:57:07.086Z,1016.88
2019-01-06T08:58:07.043Z,1016.90
2019-01-06T08:59:07.074Z,1016.91
2019-01-06T09:00:07.088Z,1016.94
2019-01-06T09:01:07.007Z,1016.95
2019-01-06T09:02:07.000Z,1016.96
2019-01-06T09:03:07.008Z,1016.99
2019-01-06T09:04:06.964Z,1016.99
2019-01-06T09:05:06.955Z,1017.01
2019-01-06T09:06:06.938Z,1017.04
2019-01-06T09:07:07.011Z,1017.01
2019-01-06T09:08:06.930Z,1016.98
2019-01-06T09:09:06.933Z,1017.00
2019-01-06T09:10:06.953Z,1017.00
2019-01-06T09:11:06.955Z,1017.02
2019-01-06T09:12:06.842Z,1017.02
2019-01-06T09:13:06.892Z,1016.98
2019-01-06T09:14:06.815Z,1017.00
2019-01-06T09:15:06.861Z,1017.03
2019-01-06T09:16:06.846Z,1016.99
2019-01-06T09:17:06.815Z,1016.95
2019-01-06T09:18:06.764Z,1016.99
2019-01-06T09:19:06.794Z,1017.02
2019-01-06T09:20:06.752Z,1017.02
2019-01-06T09:21:06.826Z,1017.01
2019-01-06T09:22:06.787Z,1017.03
2019-01-06T09:23:06.710Z,1017.04
2019-01-06T09:24:06.711Z,1017.04
2019-01-06T09:25:06.678Z,1017.07
2019-01-06T09:26:06.673Z,1017.04
2019-01-06T09:27:06.848Z,1017.05
2019-01-06T09:28:06.651Z,1017.03
2019-01-06T09:29:06.632Z,1017.03
2019-01-06T09:30:06.593Z,1017.06
2019-01-06T09:31:06.597Z,1017.09
2019-01-06T09:32:06.625Z,1017.09
2019-01-06T09:33:06.556Z,1017.11
2019-01-06T09:34:06.636Z,1017.12
2019-01-06T09:35:06.519Z,1017.15
2019-01-06T09:36:06.573Z,1017.18
2019-01-06T09:37:06.477Z,1017.19
2019-01-06T09:38:06.556Z,1017.24
2019-01-06T09:39:06.472Z,1017.21
2019-01-06T09:40:06.957Z,1017.22
2019-01-06T09:41:06.459Z,1017.23
2019-01-06T09:42:06.457Z,1017.23
2019-01-06T09:43:06.428Z,1017.25
2019-01-06T09:44:06.398Z,1017.24
2019-01-06T09:45:06.387Z,1017.23
2019-01-06T09:46:06.375Z,1017.23
2019-01-06T09:47:06.373Z,1017.20
2019-01-06T09:48:06.355Z,1017.21
2019-01-06T09:49:06.317Z,1017.21
2019-01-06T09:50:06.295Z,1017.24
2019-01-06T09:51:06.340Z,1017.25
2019-01-06T09:52:06.306Z,1017.24
2019-01-06T09:53:06.300Z,1017.27
2019-01-06T09:54:06.274Z,1017.25
2019-01-06T09:55:06.220Z,1017.26
2019-01-06T09:56:06.208Z,1017.24
2019-01-06T09:57:06.398Z,1017.22
2019-01-06T09:58:06.174Z,1017.25
2019-01-06T09:59:06.168Z,1017.24
2019-01-06T10:00:06.151Z,1017.24
2019-01-06T10:01:06.128Z,1017.23
2019-01-06T10:02:06.166Z,1017.19
2019-01-06T10:03:06.103Z,1017.17
2019-01-06T10:04:06.108Z,1017.19
2019-01-06T10:05:06.090Z,1017.21
2019-01-06T10:06:06.064Z,1017.24
2019-01-06T10:07:06.054Z,1017.25
2019-01-06T10:08:07.084Z,1017.26
2019-01-06T10:09:06.034Z,1017.28
2019-01-06T10:10:06.019Z,1017.25
2019-01-06T10:11:06.053Z,1017.25
2019-01-06T10:12:06.049Z,1017.27
2019-01-06T10:13:05.986Z,1017.28
2019-01-06T10:14:05.980Z,1017.32
2019-01-06T10:15:05.965Z,1017.34
2019-01-06T10:16:05.968Z,1017.32
2019-01-06T10:17:05.981Z,1017.32
2019-01-06T10:18:05.956Z,1017.33
2019-01-06T10:19:05.919Z,1017.33
2019-01-06T10:20:05.905Z,1017.32
2019-01-06T10:21:05.848Z,1017.31
2019-01-06T10:22:05.889Z,1017.34
2019-01-06T10:23:05.862Z,1017.35
2019-01-06T10:24:05.868Z,1017.32
2019-01-06T10:25:07.201Z,1017.35
2019-01-06T10:26:05.798Z,1017.33
2019-01-06T10:27:05.814Z,1017.34
2019-01-06T10:28:05.772Z,1017.32
2019-01-06T10:29:05.764Z,1017.34
2019-01-06T10:30:05.779Z,1017.31
2019-01-06T10:31:05.745Z,1017.29
2019-01-06T10:32:05.734Z,1017.29
2019-01-06T10:33:05.725Z,1017.31
2019-01-06T10:34:05.810Z,1017.30
2019-01-06T10:35:05.737Z,1017.32
2019-01-06T10:36:05.738Z,1017.33
2019-01-06T10:37:05.628Z,1017.30
2019-01-06T10:38:05.688Z,1017.34
2019-01-06T10:39:05.600Z,1017.34
2019-01-06T10:40:05.597Z,1017.31
2019-01-06T10:41:05.585Z,1017.34
2019-01-06T10:42:05.558Z,1017.32
2019-01-06T10:43:05.555Z,1017.31
2019-01-06T10:44:05.552Z,1017.35
2019-01-06T10:45:05.523Z,1017.31
2019-01-06T10:46:05.512Z,1017.34
2019-01-06T10:47:05.519Z,1017.33
2019-01-06T10:48:05.499Z,1017.36
2019-01-06T10:49:05.488Z,1017.34
2019-01-06T10:50:05.479Z,1017.33
2019-01-06T10:51:05.438Z,1017.36
2019-01-06T10:52:05.476Z,1017.32
2019-01-06T10:53:05.435Z,1017.35
2019-01-06T10:54:05.416Z,1017.32
2019-01-06T10:55:05.420Z,1017.29
2019-01-06T10:56:05.409Z,1017.34
2019-01-06T10:57:05.367Z,1017.33
2019-01-06T10:58:05.361Z,1017.36
2019-01-06T10:59:05.340Z,1017.37
2019-01-06T11:00:05.339Z,1017.34
2019-01-06T11:01:05.313Z,1017.36
2019-01-06T11:02:05.342Z,1017.31
2019-01-06T11:03:05.515Z,1017.32
2019-01-06T11:04:05.377Z,1017.31
2019-01-06T11:05:05.279Z,1017.34
2019-01-06T11:06:05.259Z,1017.33
2019-01-06T11:07:05.215Z,1017.34
2019-01-06T11:08:05.227Z,1017.32
2019-01-06T11:09:05.197Z,1017.35
2019-01-06T11:10:05.171Z,1017.32
2019-01-06T11:11:05.199Z,1017.32
2019-01-06T11:12:05.200Z,1017.30
2019-01-06T11:13:05.130Z,1017.31
2019-01-06T11:14:05.117Z,1017.29
2019-01-06T11:15:05.102Z,1017.29
2019-01-06T11:16:05.103Z,1017.29
2019-01-06T11:17:05.090Z,1017.28
2019-01-06T11:18:05.072Z,1017.28
2019-01-06T11:19:05.059Z,1017.26
2019-01-06T11:20:05.052Z,1017.24
2019-01-06T11:21:05.030Z,1017.25
2019-01-06T11:22:05.037Z,1017.29
2019-01-06T11:23:05.038Z,1017.26
2019-01-06T11:24:04.995Z,1017.23
2019-01-06T11:25:04.970Z,1017.28
2019-01-06T11:26:04.961Z,1017.23
2019-01-06T11:27:04.945Z,1017.24
2019-01-06T11:28:04.943Z,1017.24
2019-01-06T11:29:04.917Z,1017.22
2019-01-06T11:30:04.917Z,1017.21
2019-01-06T11:31:04.896Z,1017.24
2019-01-06T11:32:04.899Z,1017.24
2019-01-06T11:33:04.880Z,1017.23
2019-01-06T11:34:04.879Z,1017.20
2019-01-06T11:35:04.834Z,1017.21
2019-01-06T11:36:04.833Z,1017.26
2019-01-06T11:37:04.839Z,1017.20
2019-01-06T11:38:04.830Z,1017.19
2019-01-06T11:39:04.787Z,1017.20
2019-01-06T11:40:04.808Z,1017.24
2019-01-06T11:41:08.028Z,1017.21
2019-01-06T11:42:04.835Z,1017.18
2019-01-06T11:43:04.714Z,1017.20
2019-01-06T11:44:04.728Z,1017.17
2019-01-06T11:45:04.704Z,1017.19
2019-01-06T11:46:04.696Z,1017.21
2019-01-06T11:47:04.655Z,1017.20
2019-01-06T11:48:04.650Z,1017.21
2019-01-06T11:49:04.637Z,1017.13
2019-01-06T11:50:04.625Z,1017.16
2019-01-06T11:51:04.650Z,1017.18
2019-01-06T11:52:04.585Z,1017.19
2019-01-06T11:53:04.577Z,1017.13
2019-01-06T11:54:04.559Z,1017.15
2019-01-06T11:55:04.592Z,1017.15
2019-01-06T11:56:04.570Z,1017.14
2019-01-06T11:57:04.513Z,1017.12
2019-01-06T11:58:04.505Z,1017.09
2019-01-06T11:59:04.502Z,1017.07
2019-01-06T12:00:04.493Z,1017.08
2019-01-06T12:01:04.464Z,1017.05
2019-01-06T12:02:04.449Z,1017.04
2019-01-06T12:03:04.425Z,1017.03
2019-01-06T12:04:04.422Z,1016.99
2019-01-06T12:05:04.406Z,1016.99